sensor_id;sensor_type;location;lat;lon;timestamp;P1;durP1;ratioP1;P2;durP2;ratioP2
29218;SDS011;16421;50.202;7.852;2023-09-30T00:04:04;4.30;;;1.85;;
29218;SDS011;16421;50.202;7.852;2023-09-30T00:14:12;4.63;;;2.28;;
29218;SDS011;16421;50.202;7.852;2023-09-30T00:19:17;4.28;;;2.22;;
29218;SDS011;16421;50.202;7.852;2023-09-30T00:24:20;3.33;;;2.00;;
29218;SDS011;16421;50.202;7.852;2023-09-30T00:29:24;4.10;;;2.40;;
29218;SDS011;16421;50.202;7.852;2023-09-30T00:34:29;3.67;;;2.20;;
29218;SDS011;16421;50.202;7.852;2023-09-30T00:39:35;3.47;;;2.30;;
29218;SDS011;16421;50.202;7.852;2023-09-30T00:44:38;4.28;;;2.17;;
29218;SDS011;16421;50.202;7.852;2023-09-30T00:49:43;4.20;;;2.25;;
29218;SDS011;16421;50.202;7.852;2023-09-30T00:54:46;4.00;;;2.53;;
29218;SDS011;16421;50.202;7.852;2023-09-30T00:59:51;3.05;;;2.60;;
29218;SDS011;16421;50.202;7.852;2023-09-30T01:04:56;4.22;;;2.53;;
29218;SDS011;16421;50.202;7.852;2023-09-30T01:09:59;4.10;;;2.28;;
29218;SDS011;16421;50.202;7.852;2023-09-30T01:15:03;3.85;;;1.85;;
29218;SDS011;16421;50.202;7.852;2023-09-30T01:20:10;5.05;;;2.38;;
29218;SDS011;16421;50.202;7.852;2023-09-30T01:25:24;3.83;;;2.15;;
29218;SDS011;16421;50.202;7.852;2023-09-30T01:30:28;3.10;;;1.87;;
29218;SDS011;16421;50.202;7.852;2023-09-30T01:35:33;2.95;;;2.25;;
29218;SDS011;16421;50.202;7.852;2023-09-30T01:40:38;4.53;;;2.65;;
29218;SDS011;16421;50.202;7.852;2023-09-30T01:45:41;4.07;;;2.13;;
29218;SDS011;16421;50.202;7.852;2023-09-30T01:50:45;4.65;;;2.72;;
29218;SDS011;16421;50.202;7.852;2023-09-30T01:55:50;3.90;;;2.28;;
29218;SDS011;16421;50.202;7.852;2023-09-30T02:00:53;3.25;;;2.35;;
29218;SDS011;16421;50.202;7.852;2023-09-30T02:06:03;4.30;;;2.03;;
29218;SDS011;16421;50.202;7.852;2023-09-30T02:11:08;2.83;;;2.17;;
29218;SDS011;16421;50.202;7.852;2023-09-30T02:16:11;3.95;;;2.25;;
29218;SDS011;16421;50.202;7.852;2023-09-30T02:21:15;3.42;;;2.25;;
29218;SDS011;16421;50.202;7.852;2023-09-30T02:26:21;5.68;;;2.55;;
29218;SDS011;16421;50.202;7.852;2023-09-30T02:31:26;3.13;;;2.20;;
29218;SDS011;16421;50.202;7.852;2023-09-30T02:36:29;5.63;;;2.05;;
29218;SDS011;16421;50.202;7.852;2023-09-30T02:41:34;3.20;;;2.45;;
29218;SDS011;16421;50.202;7.852;2023-09-30T02:46:39;4.13;;;2.47;;
29218;SDS011;16421;50.202;7.852;2023-09-30T02:51:42;6.47;;;2.80;;
29218;SDS011;16421;50.202;7.852;2023-09-30T02:56:47;4.60;;;2.28;;
29218;SDS011;16421;50.202;7.852;2023-09-30T03:01:51;4.70;;;2.40;;
29218;SDS011;16421;50.202;7.852;2023-09-30T03:06:54;4.38;;;2.67;;
29218;SDS011;16421;50.202;7.852;2023-09-30T03:12:00;3.50;;;1.77;;
29218;SDS011;16421;50.202;7.852;2023-09-30T03:17:03;6.97;;;2.53;;
29218;SDS011;16421;50.202;7.852;2023-09-30T03:22:12;4.00;;;2.03;;
29218;SDS011;16421;50.202;7.852;2023-09-30T03:27:18;2.97;;;1.77;;
29218;SDS011;16421;50.202;7.852;2023-09-30T03:32:21;6.50;;;2.13;;
29218;SDS011;16421;50.202;7.852;2023-09-30T03:37:26;2.83;;;2.17;;
29218;SDS011;16421;50.202;7.852;2023-09-30T03:42:31;4.82;;;2.30;;
29218;SDS011;16421;50.202;7.852;2023-09-30T03:47:34;4.90;;;2.30;;
29218;SDS011;16421;50.202;7.852;2023-09-30T03:52:38;3.85;;;2.05;;
29218;SDS011;16421;50.202;7.852;2023-09-30T03:57:46;5.05;;;2.33;;
29218;SDS011;16421;50.202;7.852;2023-09-30T04:02:50;2.63;;;1.80;;
29218;SDS011;16421;50.202;7.852;2023-09-30T04:07:55;3.38;;;2.00;;
29218;SDS011;16421;50.202;7.852;2023-09-30T04:13:00;3.60;;;1.95;;
29218;SDS011;16421;50.202;7.852;2023-09-30T04:18:04;5.55;;;1.67;;
29218;SDS011;16421;50.202;7.852;2023-09-30T04:23:07;5.15;;;2.20;;
29218;SDS011;16421;50.202;7.852;2023-09-30T04:28:13;2.17;;;1.52;;
29218;SDS011;16421;50.202;7.852;2023-09-30T04:33:17;4.55;;;2.17;;
29218;SDS011;16421;50.202;7.852;2023-09-30T04:38:23;3.78;;;2.00;;
29218;SDS011;16421;50.202;7.852;2023-09-30T04:43:28;3.65;;;2.05;;
29218;SDS011;16421;50.202;7.852;2023-09-30T04:48:34;3.58;;;2.00;;
29218;SDS011;16421;50.202;7.852;2023-09-30T04:53:37;3.75;;;1.55;;
29218;SDS011;16421;50.202;7.852;2023-09-30T04:58:42;3.70;;;1.52;;
29218;SDS011;16421;50.202;7.852;2023-09-30T05:03:45;4.50;;;1.52;;
29218;SDS011;16421;50.202;7.852;2023-09-30T05:08:51;3.33;;;1.80;;
29218;SDS011;16421;50.202;7.852;2023-09-30T05:13:55;3.03;;;1.73;;
29218;SDS011;16421;50.202;7.852;2023-09-30T05:18:59;2.58;;;1.75;;
29218;SDS011;16421;50.202;7.852;2023-09-30T05:24:03;3.80;;;1.63;;
29218;SDS011;16421;50.202;7.852;2023-09-30T05:29:08;3.40;;;1.80;;
29218;SDS011;16421;50.202;7.852;2023-09-30T05:34:11;3.67;;;1.70;;
29218;SDS011;16421;50.202;7.852;2023-09-30T05:39:14;3.83;;;1.80;;
29218;SDS011;16421;50.202;7.852;2023-09-30T05:44:22;3.63;;;1.73;;
29218;SDS011;16421;50.202;7.852;2023-09-30T05:49:25;2.42;;;1.60;;
29218;SDS011;16421;50.202;7.852;2023-09-30T05:54:29;5.13;;;2.22;;
29218;SDS011;16421;50.202;7.852;2023-09-30T05:59:33;2.80;;;1.40;;
29218;SDS011;16421;50.202;7.852;2023-09-30T06:04:36;2.25;;;1.25;;
29218;SDS011;16421;50.202;7.852;2023-09-30T06:09:40;3.33;;;1.58;;
29218;SDS011;16421;50.202;7.852;2023-09-30T06:14:45;3.63;;;1.83;;
29218;SDS011;16421;50.202;7.852;2023-09-30T06:19:48;3.28;;;1.20;;
29218;SDS011;16421;50.202;7.852;2023-09-30T06:24:52;4.65;;;1.10;;
29218;SDS011;16421;50.202;7.852;2023-09-30T06:29:56;2.78;;;1.50;;
29218;SDS011;16421;50.202;7.852;2023-09-30T06:34:59;3.20;;;1.73;;
29218;SDS011;16421;50.202;7.852;2023-09-30T06:40:04;2.95;;;1.60;;
29218;SDS011;16421;50.202;7.852;2023-09-30T06:45:10;3.70;;;1.08;;
29218;SDS011;16421;50.202;7.852;2023-09-30T06:50:14;4.57;;;1.60;;
29218;SDS011;16421;50.202;7.852;2023-09-30T06:55:18;3.03;;;1.63;;
29218;SDS011;16421;50.202;7.852;2023-09-30T07:00:22;3.67;;;1.90;;
29218;SDS011;16421;50.202;7.852;2023-09-30T07:05:26;2.42;;;2.10;;
29218;SDS011;16421;50.202;7.852;2023-09-30T07:10:30;3.88;;;2.20;;
29218;SDS011;16421;50.202;7.852;2023-09-30T07:15:35;3.30;;;2.15;;
29218;SDS011;16421;50.202;7.852;2023-09-30T07:20:38;2.80;;;1.90;;
29218;SDS011;16421;50.202;7.852;2023-09-30T07:25:42;2.95;;;1.80;;
29218;SDS011;16421;50.202;7.852;2023-09-30T07:30:47;3.40;;;2.00;;
29218;SDS011;16421;50.202;7.852;2023-09-30T07:35:50;2.95;;;1.70;;
29218;SDS011;16421;50.202;7.852;2023-09-30T07:52:02;2.63;;;1.63;;
29218;SDS011;16421;50.202;7.852;2023-09-30T07:57:06;4.93;;;2.55;;
29218;SDS011;16421;50.202;7.852;2023-09-30T08:02:10;2.65;;;1.77;;
29218;SDS011;16421;50.202;7.852;2023-09-30T08:07:14;3.33;;;1.83;;
29218;SDS011;16421;50.202;7.852;2023-09-30T08:12:17;3.40;;;2.40;;
29218;SDS011;16421;50.202;7.852;2023-09-30T08:17:22;4.10;;;2.20;;
29218;SDS011;16421;50.202;7.852;2023-09-30T08:22:26;5.60;;;3.20;;
29218;SDS011;16421;50.202;7.852;2023-09-30T08:27:29;3.33;;;2.42;;
29218;SDS011;16421;50.202;7.852;2023-09-30T08:32:34;4.00;;;2.30;;
29218;SDS011;16421;50.202;7.852;2023-09-30T08:37:38;2.90;;;1.85;;
29218;SDS011;16421;50.202;7.852;2023-09-30T08:42:41;3.30;;;2.17;;
29218;SDS011;16421;50.202;7.852;2023-09-30T08:47:46;5.03;;;3.40;;
29218;SDS011;16421;50.202;7.852;2023-09-30T08:52:50;3.93;;;3.00;;
29218;SDS011;16421;50.202;7.852;2023-09-30T08:57:54;5.72;;;3.50;;
29218;SDS011;16421;50.202;7.852;2023-09-30T09:03:00;5.78;;;2.78;;
29218;SDS011;16421;50.202;7.852;2023-09-30T09:08:04;4.20;;;2.90;;
29218;SDS011;16421;50.202;7.852;2023-09-30T09:13:07;5.68;;;4.15;;
29218;SDS011;16421;50.202;7.852;2023-09-30T09:18:12;3.50;;;2.85;;
29218;SDS011;16421;50.202;7.852;2023-09-30T09:23:32;4.35;;;3.30;;
29218;SDS011;16421;50.202;7.852;2023-09-30T09:28:42;4.72;;;3.22;;
29218;SDS011;16421;50.202;7.852;2023-09-30T09:33:46;7.88;;;3.60;;
29218;SDS011;16421;50.202;7.852;2023-09-30T09:38:50;5.78;;;2.50;;
29218;SDS011;16421;50.202;7.852;2023-09-30T09:43:54;4.03;;;2.00;;
29218;SDS011;16421;50.202;7.852;2023-09-30T09:49:02;4.60;;;1.90;;
29218;SDS011;16421;50.202;7.852;2023-09-30T09:54:06;2.60;;;1.00;;
29218;SDS011;16421;50.202;7.852;2023-09-30T09:59:11;5.70;;;1.70;;
29218;SDS011;16421;50.202;7.852;2023-09-30T10:04:16;3.95;;;1.70;;
29218;SDS011;16421;50.202;7.852;2023-09-30T10:09:20;4.05;;;1.33;;
29218;SDS011;16421;50.202;7.852;2023-09-30T10:14:33;3.42;;;1.33;;
29218;SDS011;16421;50.202;7.852;2023-09-30T10:19:50;3.40;;;1.55;;
29218;SDS011;16421;50.202;7.852;2023-09-30T10:30:38;3.15;;;1.52;;
29218;SDS011;16421;50.202;7.852;2023-09-30T10:36:02;4.28;;;1.60;;
29218;SDS011;16421;50.202;7.852;2023-09-30T10:41:07;4.13;;;1.90;;
29218;SDS011;16421;50.202;7.852;2023-09-30T10:46:30;4.25;;;1.95;;
29218;SDS011;16421;50.202;7.852;2023-09-30T10:51:39;2.97;;;1.57;;
29218;SDS011;16421;50.202;7.852;2023-09-30T10:56:43;3.88;;;1.65;;
29218;SDS011;16421;50.202;7.852;2023-09-30T11:01:47;1.73;;;1.08;;
29218;SDS011;16421;50.202;7.852;2023-09-30T11:06:52;2.70;;;1.30;;
29218;SDS011;16421;50.202;7.852;2023-09-30T11:11:56;4.18;;;1.92;;
29218;SDS011;16421;50.202;7.852;2023-09-30T11:17:00;5.20;;;1.85;;
29218;SDS011;16421;50.202;7.852;2023-09-30T11:22:06;3.88;;;1.35;;
29218;SDS011;16421;50.202;7.852;2023-09-30T11:27:10;6.82;;;2.97;;
29218;SDS011;16421;50.202;7.852;2023-09-30T11:32:22;5.03;;;1.95;;
29218;SDS011;16421;50.202;7.852;2023-09-30T11:37:32;4.45;;;1.67;;
29218;SDS011;16421;50.202;7.852;2023-09-30T11:42:35;4.53;;;1.95;;
29218;SDS011;16421;50.202;7.852;2023-09-30T11:47:39;4.13;;;1.40;;
29218;SDS011;16421;50.202;7.852;2023-09-30T11:52:45;4.47;;;1.77;;
29218;SDS011;16421;50.202;7.852;2023-09-30T11:57:49;3.50;;;1.67;;
29218;SDS011;16421;50.202;7.852;2023-09-30T12:02:55;4.22;;;1.50;;
29218;SDS011;16421;50.202;7.852;2023-09-30T12:08:00;4.00;;;2.30;;
29218;SDS011;16421;50.202;7.852;2023-09-30T12:13:04;3.60;;;1.80;;
29218;SDS011;16421;50.202;7.852;2023-09-30T12:18:07;4.35;;;1.83;;
29218;SDS011;16421;50.202;7.852;2023-09-30T12:23:12;3.15;;;1.80;;
29218;SDS011;16421;50.202;7.852;2023-09-30T12:28:16;3.17;;;1.50;;
29218;SDS011;16421;50.202;7.852;2023-09-30T12:33:19;7.05;;;2.72;;
29218;SDS011;16421;50.202;7.852;2023-09-30T12:38:24;3.63;;;2.03;;
29218;SDS011;16421;50.202;7.852;2023-09-30T12:43:28;5.28;;;2.03;;
29218;SDS011;16421;50.202;7.852;2023-09-30T12:48:32;2.80;;;1.63;;
29218;SDS011;16421;50.202;7.852;2023-09-30T12:53:36;3.75;;;2.15;;
29218;SDS011;16421;50.202;7.852;2023-09-30T12:58:40;3.15;;;1.65;;
29218;SDS011;16421;50.202;7.852;2023-09-30T13:03:43;2.97;;;1.60;;
29218;SDS011;16421;50.202;7.852;2023-09-30T13:08:48;6.75;;;2.58;;
29218;SDS011;16421;50.202;7.852;2023-09-30T13:13:52;5.28;;;2.45;;
29218;SDS011;16421;50.202;7.852;2023-09-30T13:18:55;5.13;;;2.50;;
29218;SDS011;16421;50.202;7.852;2023-09-30T13:24:00;3.70;;;1.77;;
29218;SDS011;16421;50.202;7.852;2023-09-30T13:29:03;3.65;;;1.73;;
29218;SDS011;16421;50.202;7.852;2023-09-30T13:34:07;4.57;;;2.47;;
29218;SDS011;16421;50.202;7.852;2023-09-30T13:39:12;5.40;;;2.42;;
29218;SDS011;16421;50.202;7.852;2023-09-30T13:44:18;4.85;;;2.30;;
29218;SDS011;16421;50.202;7.852;2023-09-30T13:49:22;8.02;;;3.17;;
29218;SDS011;16421;50.202;7.852;2023-09-30T13:54:26;4.22;;;1.85;;
29218;SDS011;16421;50.202;7.852;2023-09-30T13:59:33;3.30;;;1.90;;
29218;SDS011;16421;50.202;7.852;2023-09-30T14:04:37;5.05;;;2.28;;
29218;SDS011;16421;50.202;7.852;2023-09-30T14:09:42;3.00;;;1.92;;
29218;SDS011;16421;50.202;7.852;2023-09-30T14:14:46;4.70;;;2.45;;
29218;SDS011;16421;50.202;7.852;2023-09-30T14:19:50;4.95;;;2.00;;
29218;SDS011;16421;50.202;7.852;2023-09-30T14:24:55;5.28;;;2.40;;
29218;SDS011;16421;50.202;7.852;2023-09-30T14:29:58;3.65;;;2.08;;
29218;SDS011;16421;50.202;7.852;2023-09-30T14:35:02;3.83;;;1.90;;
29218;SDS011;16421;50.202;7.852;2023-09-30T14:40:09;3.40;;;1.70;;
29218;SDS011;16421;50.202;7.852;2023-09-30T14:50:16;3.10;;;1.67;;
29218;SDS011;16421;50.202;7.852;2023-09-30T14:55:21;5.82;;;2.97;;
29218;SDS011;16421;50.202;7.852;2023-09-30T15:00:24;5.07;;;2.17;;
29218;SDS011;16421;50.202;7.852;2023-09-30T15:05:28;4.25;;;2.22;;
29218;SDS011;16421;50.202;7.852;2023-09-30T15:10:35;4.22;;;2.05;;
29218;SDS011;16421;50.202;7.852;2023-09-30T15:15:38;2.97;;;1.52;;
29218;SDS011;16421;50.202;7.852;2023-09-30T15:20:42;3.45;;;1.70;;
29218;SDS011;16421;50.202;7.852;2023-09-30T15:25:47;2.85;;;1.80;;
29218;SDS011;16421;50.202;7.852;2023-09-30T15:30:50;4.43;;;1.85;;
29218;SDS011;16421;50.202;7.852;2023-09-30T15:35:54;3.47;;;1.80;;
29218;SDS011;16421;50.202;7.852;2023-09-30T15:40:59;3.17;;;1.63;;
29218;SDS011;16421;50.202;7.852;2023-09-30T15:46:04;2.97;;;1.70;;
29218;SDS011;16421;50.202;7.852;2023-09-30T15:51:09;2.87;;;1.83;;
29218;SDS011;16421;50.202;7.852;2023-09-30T15:56:14;3.75;;;1.88;;
29218;SDS011;16421;50.202;7.852;2023-09-30T16:01:18;3.35;;;1.92;;
29218;SDS011;16421;50.202;7.852;2023-09-30T16:06:21;3.05;;;2.00;;
29218;SDS011;16421;50.202;7.852;2023-09-30T16:11:26;3.10;;;1.60;;
29218;SDS011;16421;50.202;7.852;2023-09-30T16:16:30;2.97;;;1.53;;
29218;SDS011;16421;50.202;7.852;2023-09-30T16:21:34;4.65;;;2.00;;
29218;SDS011;16421;50.202;7.852;2023-09-30T16:26:39;3.25;;;1.77;;
29218;SDS011;16421;50.202;7.852;2023-09-30T16:31:43;4.07;;;2.10;;
29218;SDS011;16421;50.202;7.852;2023-09-30T16:36:46;3.30;;;1.95;;
29218;SDS011;16421;50.202;7.852;2023-09-30T16:41:51;3.90;;;2.47;;
29218;SDS011;16421;50.202;7.852;2023-09-30T16:46:54;4.57;;;2.05;;
29218;SDS011;16421;50.202;7.852;2023-09-30T16:51:58;4.57;;;2.28;;
29218;SDS011;16421;50.202;7.852;2023-09-30T16:57:03;4.03;;;2.50;;
29218;SDS011;16421;50.202;7.852;2023-09-30T17:02:08;4.63;;;2.30;;
29218;SDS011;16421;50.202;7.852;2023-09-30T17:07:12;4.85;;;2.33;;
29218;SDS011;16421;50.202;7.852;2023-09-30T17:12:16;3.67;;;2.20;;
29218;SDS011;16421;50.202;7.852;2023-09-30T17:17:20;6.07;;;2.40;;
29218;SDS011;16421;50.202;7.852;2023-09-30T17:22:23;4.88;;;3.00;;
29218;SDS011;16421;50.202;7.852;2023-09-30T17:27:28;5.28;;;3.30;;
29218;SDS011;16421;50.202;7.852;2023-09-30T17:32:31;4.68;;;2.78;;
29218;SDS011;16421;50.202;7.852;2023-09-30T17:37:35;5.25;;;2.83;;
29218;SDS011;16421;50.202;7.852;2023-09-30T17:42:40;5.40;;;2.78;;
29218;SDS011;16421;50.202;7.852;2023-09-30T17:47:43;4.32;;;2.50;;
29218;SDS011;16421;50.202;7.852;2023-09-30T17:52:47;4.53;;;2.60;;
29218;SDS011;16421;50.202;7.852;2023-09-30T17:57:52;4.25;;;2.50;;
29218;SDS011;16421;50.202;7.852;2023-09-30T18:02:55;4.03;;;2.30;;
29218;SDS011;16421;50.202;7.852;2023-09-30T18:07:58;5.18;;;2.97;;
29218;SDS011;16421;50.202;7.852;2023-09-30T18:13:03;4.88;;;2.90;;
29218;SDS011;16421;50.202;7.852;2023-09-30T18:18:07;4.78;;;2.90;;
29218;SDS011;16421;50.202;7.852;2023-09-30T18:23:12;6.78;;;3.10;;
29218;SDS011;16421;50.202;7.852;2023-09-30T18:28:17;4.68;;;2.83;;
29218;SDS011;16421;50.202;7.852;2023-09-30T18:33:21;4.68;;;2.28;;
29218;SDS011;16421;50.202;7.852;2023-09-30T18:38:24;5.35;;;2.78;;
29218;SDS011;16421;50.202;7.852;2023-09-30T18:43:29;3.65;;;2.15;;
29218;SDS011;16421;50.202;7.852;2023-09-30T18:48:33;4.43;;;2.65;;
29218;SDS011;16421;50.202;7.852;2023-09-30T18:53:36;4.13;;;2.45;;
29218;SDS011;16421;50.202;7.852;2023-09-30T18:58:42;5.60;;;2.78;;
29218;SDS011;16421;50.202;7.852;2023-09-30T19:03:45;4.93;;;2.97;;
29218;SDS011;16421;50.202;7.852;2023-09-30T19:08:49;4.38;;;2.47;;
29218;SDS011;16421;50.202;7.852;2023-09-30T19:13:54;5.03;;;2.72;;
29218;SDS011;16421;50.202;7.852;2023-09-30T19:18:57;4.40;;;2.60;;
29218;SDS011;16421;50.202;7.852;2023-09-30T19:24:01;4.35;;;2.63;;
29218;SDS011;16421;50.202;7.852;2023-09-30T19:29:06;6.00;;;2.55;;
29218;SDS011;16421;50.202;7.852;2023-09-30T19:34:10;6.68;;;3.45;;
29218;SDS011;16421;50.202;7.852;2023-09-30T19:39:13;5.32;;;2.92;;
29218;SDS011;16421;50.202;7.852;2023-09-30T19:44:19;5.43;;;3.10;;
29218;SDS011;16421;50.202;7.852;2023-09-30T19:49:22;6.20;;;2.67;;
29218;SDS011;16421;50.202;7.852;2023-09-30T19:54:25;5.45;;;3.22;;
29218;SDS011;16421;50.202;7.852;2023-09-30T19:59:30;4.07;;;2.80;;
29218;SDS011;16421;50.202;7.852;2023-09-30T20:04:34;5.28;;;2.60;;
29218;SDS011;16421;50.202;7.852;2023-09-30T20:09:39;3.63;;;2.40;;
29218;SDS011;16421;50.202;7.852;2023-09-30T20:14:45;5.10;;;2.78;;
29218;SDS011;16421;50.202;7.852;2023-09-30T20:19:48;4.00;;;2.53;;
29218;SDS011;16421;50.202;7.852;2023-09-30T20:24:53;5.95;;;2.95;;
29218;SDS011;16421;50.202;7.852;2023-09-30T20:29:58;5.80;;;2.78;;
29218;SDS011;16421;50.202;7.852;2023-09-30T20:35:01;5.38;;;2.53;;
29218;SDS011;16421;50.202;7.852;2023-09-30T20:40:07;4.50;;;2.87;;
29218;SDS011;16421;50.202;7.852;2023-09-30T20:45:15;4.60;;;2.75;;
29218;SDS011;16421;50.202;7.852;2023-09-30T20:50:18;4.53;;;2.72;;
29218;SDS011;16421;50.202;7.852;2023-09-30T20:55:22;5.72;;;3.42;;
29218;SDS011;16421;50.202;7.852;2023-09-30T21:00:27;4.57;;;2.85;;
29218;SDS011;16421;50.202;7.852;2023-09-30T21:05:31;6.55;;;3.55;;
29218;SDS011;16421;50.202;7.852;2023-09-30T21:10:38;5.88;;;3.20;;
29218;SDS011;16421;50.202;7.852;2023-09-30T21:15:44;5.88;;;3.10;;
29218;SDS011;16421;50.202;7.852;2023-09-30T21:20:48;7.15;;;3.40;;
29218;SDS011;16421;50.202;7.852;2023-09-30T21:25:51;6.10;;;3.28;;
29218;SDS011;16421;50.202;7.852;2023-09-30T21:30:57;5.80;;;2.97;;
29218;SDS011;16421;50.202;7.852;2023-09-30T21:36:01;4.50;;;2.28;;
29218;SDS011;16421;50.202;7.852;2023-09-30T21:41:10;5.60;;;2.45;;
29218;SDS011;16421;50.202;7.852;2023-09-30T21:46:15;4.60;;;2.08;;
29218;SDS011;16421;50.202;7.852;2023-09-30T21:51:19;2.92;;;2.05;;
29218;SDS011;16421;50.202;7.852;2023-09-30T21:56:22;4.03;;;1.98;;
29218;SDS011;16421;50.202;7.852;2023-09-30T22:01:27;4.65;;;2.40;;
29218;SDS011;16421;50.202;7.852;2023-09-30T22:06:33;3.33;;;2.08;;
29218;SDS011;16421;50.202;7.852;2023-09-30T22:11:37;4.53;;;2.50;;
29218;SDS011;16421;50.202;7.852;2023-09-30T22:16:42;6.63;;;3.85;;
29218;SDS011;16421;50.202;7.852;2023-09-30T22:21:45;8.48;;;4.53;;
29218;SDS011;16421;50.202;7.852;2023-09-30T22:26:49;9.85;;;5.00;;
29218;SDS011;16421;50.202;7.852;2023-09-30T22:31:54;8.90;;;4.25;;
29218;SDS011;16421;50.202;7.852;2023-09-30T22:36:57;11.13;;;4.93;;
29218;SDS011;16421;50.202;7.852;2023-09-30T22:42:01;9.07;;;4.53;;
29218;SDS011;16421;50.202;7.852;2023-09-30T22:47:06;8.20;;;4.03;;
29218;SDS011;16421;50.202;7.852;2023-09-30T22:52:09;5.65;;;3.10;;
29218;SDS011;16421;50.202;7.852;2023-09-30T22:57:13;5.70;;;2.97;;
29218;SDS011;16421;50.202;7.852;2023-09-30T23:02:17;6.50;;;3.20;;
29218;SDS011;16421;50.202;7.852;2023-09-30T23:07:21;6.20;;;3.28;;
29218;SDS011;16421;50.202;7.852;2023-09-30T23:12:25;6.18;;;3.45;;
29218;SDS011;16421;50.202;7.852;2023-09-30T23:17:30;5.78;;;2.72;;
29218;SDS011;16421;50.202;7.852;2023-09-30T23:22:42;4.53;;;2.42;;
29218;SDS011;16421;50.202;7.852;2023-09-30T23:27:50;5.07;;;2.33;;
29218;SDS011;16421;50.202;7.852;2023-09-30T23:32:55;6.25;;;2.70;;
29218;SDS011;16421;50.202;7.852;2023-09-30T23:38:00;5.45;;;2.92;;
29218;SDS011;16421;50.202;7.852;2023-09-30T23:43:04;3.97;;;2.25;;
29218;SDS011;16421;50.202;7.852;2023-09-30T23:48:10;3.63;;;2.30;;
29218;SDS011;16421;50.202;7.852;2023-09-30T23:53:13;4.32;;;2.50;;
29218;SDS011;16421;50.202;7.852;2023-09-30T23:58:18;4.75;;;2.50;;
